Saim, Russia
Current Conditions -  °F | °C
As of 1:00 AM on Wednesday 22 Oct 2014 (Local Time) from USHH Reporting Station
Overcast Overcast  
Wind Chill: -11°   Ceiling: 600
Heat Index:   Visibility: 6mi
Dew Point:   Wind: 9mph
Humidity: 85%   Direction: 250°WSW
Pressure: 29.74"   Gusts: NA
Location:  60.32°N, 64.22°E
Report Text: USHH 212000Z 25004MPS 9999 BKN006CB OVC080 M16/M18 Q1007 TEMPO1400 SHSN BKN003 RMK QBB200 QFE751 24////50
Loading
Personal Weather Stations






























Interactive Weather Map
Tropical Storm Tracking
New forecast layout! Learn more

10-Day Weather Forecast

Advertisements
Track Severe Weather on mobile